createdAt,value
2022-08-19T00:00:47.792Z,95.38
2022-08-19T00:01:52.923Z,95.38
2022-08-19T00:02:50.356Z,95.48
2022-08-19T00:03:47.751Z,96.08
2022-08-19T00:04:47.771Z,96.38
2022-08-19T00:05:47.732Z,95.88
2022-08-19T00:06:47.718Z,95.88
2022-08-19T00:07:47.701Z,95.78
2022-08-19T00:08:47.680Z,95.68
2022-08-19T00:09:47.796Z,95.78
2022-08-19T00:10:47.662Z,95.38
2022-08-19T00:11:47.653Z,95.48
2022-08-19T00:12:47.690Z,95.48
2022-08-19T00:13:47.639Z,94.98
2022-08-19T00:14:47.612Z,95.38
2022-08-19T00:15:47.623Z,95.38
2022-08-19T00:16:47.612Z,95.58
2022-08-19T00:17:47.598Z,95.58
2022-08-19T00:18:47.600Z,95.58
2022-08-19T00:19:47.551Z,95.48
2022-08-19T00:20:47.609Z,95.18
2022-08-19T00:21:47.531Z,94.98
2022-08-19T00:22:47.507Z,95.18
2022-08-19T00:23:47.532Z,95.38
2022-08-19T00:24:50.765Z,95.88
2022-08-19T00:25:48.887Z,95.48
2022-08-19T00:26:47.552Z,95.58
2022-08-19T00:27:47.441Z,95.68
2022-08-19T00:28:47.442Z,95.88
2022-08-19T00:29:52.409Z,96.28
2022-08-19T00:30:47.429Z,96.08
2022-08-19T00:31:48.633Z,95.48
2022-08-19T00:32:47.743Z,95.38
2022-08-19T00:33:47.370Z,95.58
2022-08-19T00:34:47.505Z,95.38
2022-08-19T00:35:48.330Z,95.18
2022-08-19T00:36:48.333Z,95.48
2022-08-19T00:37:47.320Z,95.18
2022-08-19T00:38:47.347Z,94.98
2022-08-19T00:39:49.256Z,95.18
2022-08-19T00:40:47.279Z,95.18
2022-08-19T00:41:47.948Z,94.78
2022-08-19T00:42:47.468Z,94.98
2022-08-19T00:43:47.369Z,94.78
2022-08-19T00:44:47.283Z,94.88
2022-08-19T00:45:47.242Z,94.68
2022-08-19T00:46:52.528Z,94.68
2022-08-19T00:47:48.210Z,94.58
2022-08-19T00:48:47.267Z,94.48
2022-08-19T00:49:47.193Z,94.48
2022-08-19T00:50:52.024Z,94.88
2022-08-19T00:51:48.168Z,94.78
2022-08-19T00:52:47.477Z,94.48
2022-08-19T00:53:47.476Z,94.88
2022-08-19T00:54:52.001Z,94.98
2022-08-19T00:55:48.068Z,95.08
2022-08-19T00:56:47.579Z,94.88
2022-08-19T00:57:47.509Z,95.68
2022-08-19T00:58:47.626Z,95.68
2022-08-19T00:59:56.468Z,95.68
2022-08-19T01:00:48.021Z,95.53
2022-08-19T01:01:47.062Z,95.83
2022-08-19T01:02:47.808Z,95.93
2022-08-19T01:03:57.938Z,96.43
2022-08-19T01:04:47.979Z,96.63
2022-08-19T01:05:47.922Z,96.78
2022-08-19T01:06:47.175Z,96.58
2022-08-19T01:07:48.010Z,96.58
2022-08-19T01:08:47.546Z,96.38
2022-08-19T01:09:48.079Z,96.68
2022-08-19T01:10:47.410Z,97.13
2022-08-19T01:11:47.951Z,97.03
2022-08-19T01:12:47.028Z,97.23
2022-08-19T01:13:49.732Z,97.23
2022-08-19T01:14:46.868Z,97.33
2022-08-19T01:15:46.862Z,97.03
2022-08-19T01:16:46.837Z,96.63
2022-08-19T01:17:46.817Z,97.23
2022-08-19T01:18:46.882Z,97.33
2022-08-19T01:19:46.800Z,97.13
2022-08-19T01:20:46.788Z,97.33
2022-08-19T01:21:47.858Z,97.83
2022-08-19T01:22:46.837Z,97.43
2022-08-19T01:23:46.749Z,97.93
2022-08-19T01:24:49.678Z,97.53
2022-08-19T01:25:46.709Z,97.83
2022-08-19T01:26:46.737Z,97.63
2022-08-19T01:27:46.778Z,98.03
2022-08-19T01:28:46.743Z,97.83
2022-08-19T01:29:46.672Z,97.33
2022-08-19T01:30:51.101Z,97.33
2022-08-19T01:31:46.606Z,97.93
2022-08-19T01:32:46.665Z,97.73
2022-08-19T01:33:48.536Z,97.63
2022-08-19T01:35:39.292Z,97.73
2022-08-19T01:36:39.273Z,97.63
2022-08-19T01:37:39.268Z,97.73
2022-08-19T01:38:44.157Z,97.53
2022-08-19T01:39:40.271Z,98.33
2022-08-19T01:40:39.225Z,98.63
2022-08-19T01:41:39.214Z,98.73
2022-08-19T01:42:39.212Z,99.18
2022-08-19T01:43:39.191Z,99.88
2022-08-19T01:44:40.233Z,99.68
2022-08-19T01:45:39.173Z,99.99
2022-08-19T01:46:39.153Z,99.99
2022-08-19T01:47:39.142Z,99.99
2022-08-19T01:48:39.129Z,99.99
2022-08-19T01:49:39.113Z,99.99
2022-08-19T01:50:39.092Z,99.99
2022-08-19T01:51:40.305Z,99.99
2022-08-19T01:52:39.074Z,99.99
2022-08-19T01:53:39.068Z,99.99
2022-08-19T01:54:39.051Z,99.99
2022-08-19T01:55:41.379Z,99.99
2022-08-19T01:56:39.008Z,99.99
2022-08-19T01:57:39.000Z,99.99
2022-08-19T01:58:39.001Z,99.99
2022-08-19T01:59:38.988Z,99.99
2022-08-19T02:00:38.969Z,99.99
2022-08-19T02:01:39.035Z,99.99
2022-08-19T02:02:38.948Z,99.99
2022-08-19T02:03:38.934Z,99.99
2022-08-19T02:04:38.928Z,99.99
2022-08-19T02:05:38.911Z,99.99
2022-08-19T02:06:39.007Z,99.99
2022-08-19T02:07:38.880Z,99.99
2022-08-19T02:08:38.862Z,99.99
2022-08-19T02:09:39.135Z,99.99
2022-08-19T02:10:38.831Z,99.99
2022-08-19T02:11:38.830Z,99.99
2022-08-19T02:12:38.819Z,99.99
2022-08-19T02:13:38.804Z,99.99
2022-08-19T02:14:38.776Z,99.99
2022-08-19T02:15:38.780Z,99.99
2022-08-19T02:16:38.758Z,99.99
2022-08-19T02:17:38.780Z,99.99
2022-08-19T02:18:38.735Z,99.99
2022-08-19T02:19:39.055Z,99.99
2022-08-19T02:20:38.714Z,99.99
2022-08-19T02:21:38.699Z,99.99
2022-08-19T02:22:38.688Z,99.99
2022-08-19T02:23:38.689Z,99.99
2022-08-19T02:24:38.648Z,99.99
2022-08-19T02:25:38.650Z,99.99
2022-08-19T02:26:38.627Z,99.99
2022-08-19T02:27:38.617Z,99.99
2022-08-19T02:28:38.598Z,99.99
2022-08-19T02:29:38.601Z,99.99
2022-08-19T02:30:38.587Z,99.99
2022-08-19T02:31:38.556Z,99.99
2022-08-19T02:32:44.511Z,99.99
2022-08-19T02:33:39.540Z,99.99
2022-08-19T02:34:38.527Z,99.99
2022-08-19T02:35:38.510Z,99.99
2022-08-19T02:36:42.484Z,99.99
2022-08-19T02:37:38.494Z,99.99
2022-08-19T02:38:38.665Z,99.99
2022-08-19T02:39:38.523Z,99.99
2022-08-19T02:40:38.448Z,99.99
2022-08-19T02:41:38.457Z,99.99
2022-08-19T02:42:38.428Z,99.99
2022-08-19T02:43:38.575Z,99.99
2022-08-19T02:44:38.388Z,99.99
2022-08-19T02:45:41.551Z,99.99
2022-08-19T02:46:38.367Z,99.99
2022-08-19T02:47:38.370Z,99.99
2022-08-19T02:48:38.348Z,99.99
2022-08-19T02:49:38.334Z,99.99
2022-08-19T02:50:38.317Z,99.99
2022-08-19T02:51:38.309Z,99.99
2022-08-19T02:52:38.286Z,99.99
2022-08-19T02:53:38.290Z,99.99
2022-08-19T02:54:38.267Z,99.99
2022-08-19T02:55:45.800Z,99.99
2022-08-19T02:56:39.309Z,99.99
2022-08-19T02:57:38.257Z,99.99
2022-08-19T02:58:38.247Z,99.99
2022-08-19T02:59:38.217Z,99.99
2022-08-19T03:00:39.626Z,99.99
2022-08-19T03:01:38.233Z,99.99
2022-08-19T03:02:38.174Z,99.99
2022-08-19T03:03:38.165Z,99.99
2022-08-19T03:04:38.140Z,99.99
2022-08-19T03:05:49.262Z,99.99
2022-08-19T03:06:39.137Z,99.99
2022-08-19T03:07:38.099Z,99.99
2022-08-19T03:08:38.118Z,99.99
2022-08-19T03:09:38.086Z,99.99
2022-08-19T03:10:38.083Z,99.99
2022-08-19T03:11:38.057Z,99.99
2022-08-19T03:12:38.049Z,99.99
2022-08-19T03:13:38.054Z,99.99
2022-08-19T03:14:38.046Z,99.99
2022-08-19T03:15:37.996Z,99.99
2022-08-19T03:16:38.003Z,99.99
2022-08-19T03:17:37.983Z,99.99
2022-08-19T03:18:37.972Z,99.99
2022-08-19T03:19:37.974Z,99.99
2022-08-19T03:20:37.936Z,99.99
2022-08-19T03:21:37.933Z,99.99
2022-08-19T03:22:37.911Z,99.99
2022-08-19T03:23:37.906Z,99.99
2022-08-19T03:24:37.884Z,99.99
2022-08-19T03:25:37.871Z,99.99
2022-08-19T03:26:37.862Z,99.99
2022-08-19T03:27:37.844Z,99.99
2022-08-19T03:28:37.823Z,99.99
2022-08-19T03:29:43.936Z,99.99
2022-08-19T03:30:38.805Z,99.99
2022-08-19T03:31:44.351Z,99.99
2022-08-19T03:32:45.290Z,99.99
2022-08-19T03:33:38.772Z,99.99
2022-08-19T03:34:37.783Z,99.99
2022-08-19T03:35:37.810Z,99.99
2022-08-19T03:36:37.721Z,99.99
2022-08-19T03:37:37.722Z,99.99
2022-08-19T03:38:37.703Z,99.99
2022-08-19T03:39:37.755Z,99.99
2022-08-19T03:40:37.724Z,99.99
2022-08-19T03:41:45.319Z,99.99
2022-08-19T03:42:48.895Z,99.99
2022-08-19T03:43:38.646Z,99.99
2022-08-19T03:44:37.613Z,99.99
2022-08-19T03:45:37.616Z,99.99
2022-08-19T03:46:38.083Z,99.99
2022-08-19T03:47:37.584Z,99.99
2022-08-19T03:48:37.587Z,99.99
2022-08-19T03:49:37.775Z,99.99
2022-08-19T03:50:37.569Z,99.99
2022-08-19T03:51:37.545Z,99.99
2022-08-19T03:52:37.522Z,99.99
2022-08-19T03:53:37.848Z,99.99
2022-08-19T03:54:37.501Z,99.99
2022-08-19T03:55:37.525Z,99.99
2022-08-19T03:56:37.482Z,99.99
2022-08-19T03:57:37.468Z,99.99
2022-08-19T03:58:37.449Z,99.99
2022-08-19T03:59:37.452Z,99.99
2022-08-19T04:00:37.450Z,99.99
2022-08-19T04:01:37.437Z,99.99
2022-08-19T04:02:37.391Z,99.99
2022-08-19T04:03:37.393Z,99.99
2022-08-19T04:04:37.384Z,99.99
2022-08-19T04:05:37.390Z,99.99
2022-08-19T04:06:38.778Z,99.99
2022-08-19T04:07:37.341Z,99.99
2022-08-19T04:08:37.312Z,99.99
2022-08-19T04:09:37.329Z,99.99
2022-08-19T04:10:37.299Z,99.99
2022-08-19T04:11:42.987Z,99.99
2022-08-19T04:12:38.271Z,99.99
2022-08-19T04:13:37.249Z,99.99
2022-08-19T04:14:37.249Z,99.99
2022-08-19T04:15:37.245Z,99.99
2022-08-19T04:16:37.229Z,99.99
2022-08-19T04:17:37.219Z,99.99
2022-08-19T04:18:37.197Z,99.99
2022-08-19T04:19:37.183Z,99.99
2022-08-19T04:20:37.201Z,99.99
2022-08-19T04:21:37.149Z,99.99
2022-08-19T04:22:37.149Z,99.99
2022-08-19T04:23:37.150Z,99.99
2022-08-19T04:24:38.190Z,99.99
2022-08-19T04:25:37.119Z,99.99
2022-08-19T04:26:37.103Z,99.99
2022-08-19T04:27:37.078Z,99.99
2022-08-19T04:28:37.071Z,99.99
2022-08-19T04:29:37.069Z,99.99
2022-08-19T04:30:37.058Z,99.99
2022-08-19T04:31:37.032Z,99.99
2022-08-19T04:32:37.017Z,99.99
2022-08-19T04:33:37.047Z,99.99
2022-08-19T04:34:36.998Z,99.99
2022-08-19T04:35:37.987Z,99.99
2022-08-19T04:36:36.969Z,99.99
2022-08-19T04:37:36.949Z,99.99
2022-08-19T04:38:36.946Z,99.99
2022-08-19T04:39:36.951Z,99.99
2022-08-19T04:40:36.923Z,99.99
2022-08-19T04:41:36.911Z,99.99
2022-08-19T04:42:36.891Z,99.99
2022-08-19T04:43:36.887Z,99.99
2022-08-19T04:44:46.068Z,99.99
2022-08-19T04:45:43.486Z,99.99
2022-08-19T04:46:40.519Z,99.99
2022-08-19T04:47:49.312Z,99.99
2022-08-19T04:48:37.817Z,99.99
2022-08-19T04:49:37.839Z,99.99
2022-08-19T04:50:36.798Z,99.99
2022-08-19T04:51:36.783Z,99.99
2022-08-19T04:52:36.758Z,99.99
2022-08-19T04:53:37.623Z,99.99
2022-08-19T04:54:37.335Z,99.99
2022-08-19T04:55:38.393Z,99.99
2022-08-19T04:56:36.717Z,99.99
2022-08-19T04:57:36.715Z,99.99
2022-08-19T04:58:36.696Z,99.99
2022-08-19T04:59:36.856Z,99.99
2022-08-19T05:00:36.759Z,99.99
2022-08-19T05:01:36.664Z,99.99
2022-08-19T05:02:36.976Z,99.99
2022-08-19T05:03:36.625Z,99.99
2022-08-19T05:04:36.616Z,99.99
2022-08-19T05:05:44.652Z,99.99
2022-08-19T05:06:37.586Z,99.99
2022-08-19T05:07:36.577Z,99.99
2022-08-19T05:08:36.575Z,99.99
2022-08-19T05:09:58.647Z,99.99
2022-08-19T05:10:37.540Z,99.99
2022-08-19T05:11:36.543Z,99.99
2022-08-19T05:12:36.558Z,99.99
2022-08-19T05:13:36.504Z,99.99
2022-08-19T05:14:36.491Z,99.99
2022-08-19T05:15:36.501Z,99.52
2022-08-19T05:16:36.456Z,99.99
2022-08-19T05:17:39.036Z,99.93
2022-08-19T05:18:36.436Z,99.99
2022-08-19T05:19:36.419Z,99.63
2022-08-19T05:20:36.406Z,99.73
2022-08-19T05:21:36.397Z,99.58
2022-08-19T05:22:36.375Z,99.58
2022-08-19T05:23:36.381Z,99.68
2022-08-19T05:24:44.044Z,99.88
2022-08-19T05:25:37.386Z,99.78
2022-08-19T05:26:36.392Z,99.58
2022-08-19T05:27:36.304Z,99.38
2022-08-19T05:28:36.304Z,99.78
2022-08-19T05:29:36.654Z,99.58
2022-08-19T05:30:46.731Z,98.88
2022-08-19T05:31:39.232Z,99.28
2022-08-19T05:32:36.243Z,98.98
2022-08-19T05:33:36.255Z,99.48
2022-08-19T05:34:36.224Z,98.78
2022-08-19T05:35:36.206Z,98.68
2022-08-19T05:36:36.215Z,98.98
2022-08-19T05:37:36.183Z,98.88
2022-08-19T05:38:36.195Z,98.68
2022-08-19T05:39:36.209Z,98.58
2022-08-19T05:40:36.166Z,99.08
2022-08-19T05:41:36.138Z,99.13
2022-08-19T05:42:36.126Z,99.13
2022-08-19T05:43:36.114Z,99.13
2022-08-19T05:44:36.095Z,98.53
2022-08-19T05:45:36.075Z,98.43
2022-08-19T05:46:36.067Z,97.93
2022-08-19T05:47:36.056Z,98.13
2022-08-19T05:48:37.038Z,98.03
2022-08-19T05:49:36.024Z,97.83
2022-08-19T05:50:36.022Z,98.13
2022-08-19T05:51:35.994Z,97.49
2022-08-19T05:52:35.998Z,96.98
2022-08-19T05:53:35.978Z,96.48
2022-08-19T05:54:35.978Z,96.88
2022-08-19T05:55:35.979Z,96.38
2022-08-19T05:56:35.944Z,96.78
2022-08-19T05:57:35.923Z,96.88
2022-08-19T05:58:35.916Z,96.44
2022-08-19T05:59:35.903Z,96.14
2022-08-19T06:00:35.933Z,96.23
2022-08-19T06:01:35.902Z,95.23
2022-08-19T06:02:35.965Z,95.94
2022-08-19T06:03:35.861Z,95.43
2022-08-19T06:04:35.842Z,95.64
2022-08-19T06:05:42.211Z,96.14
2022-08-19T06:06:37.178Z,95.54
2022-08-19T06:08:36.434Z,95.34
2022-08-19T06:09:35.802Z,95.54
2022-08-19T06:10:35.770Z,95.84
2022-08-19T06:11:35.773Z,95.73
2022-08-19T06:12:36.445Z,95.73
2022-08-19T06:13:35.724Z,95.39
2022-08-19T06:14:37.614Z,93.84
2022-08-19T06:15:36.690Z,94.64
2022-08-19T06:16:35.707Z,94.34
2022-08-19T06:17:35.819Z,95.04
2022-08-19T06:18:35.664Z,94.79
2022-08-19T06:19:40.725Z,94.64
2022-08-19T06:20:55.157Z,94.89
2022-08-19T06:21:36.689Z,95.29
2022-08-19T06:22:35.618Z,94.99
2022-08-19T06:23:35.604Z,95.39
2022-08-19T06:24:35.583Z,94.39
2022-08-19T06:25:35.573Z,94.19
2022-08-19T06:26:35.640Z,94.69
2022-08-19T06:27:35.569Z,94.69
2022-08-19T06:28:35.520Z,94.09
2022-08-19T06:29:35.567Z,94.39
2022-08-19T06:30:35.523Z,93.69
2022-08-19T06:31:35.487Z,93.89
2022-08-19T06:32:37.894Z,93.69
2022-08-19T06:33:36.495Z,94.09
2022-08-19T06:34:35.462Z,93.44
2022-08-19T06:35:35.502Z,93.95
2022-08-19T06:36:35.421Z,93.24
2022-08-19T06:37:35.442Z,93.55
2022-08-19T06:38:35.425Z,92.94
2022-08-19T06:39:36.341Z,93.35
2022-08-19T06:40:35.508Z,93.15
2022-08-19T06:41:37.372Z,93.44
2022-08-19T06:42:35.572Z,93.39
2022-08-19T06:43:35.344Z,93.85
2022-08-19T06:44:35.373Z,93.95
2022-08-19T06:45:39.471Z,93.55
2022-08-19T06:46:35.403Z,93.35
2022-08-19T06:47:35.319Z,93.35
2022-08-19T06:48:39.358Z,93.24
2022-08-19T06:49:36.270Z,93.65
2022-08-19T06:50:36.780Z,93.55
2022-08-19T06:51:35.359Z,93.05
2022-08-19T06:52:36.442Z,93.44
2022-08-19T06:53:35.225Z,92.94
2022-08-19T06:54:37.731Z,92.75
2022-08-19T06:55:36.337Z,93.35
2022-08-19T06:56:35.210Z,93.05
2022-08-19T06:57:35.163Z,92.94
2022-08-19T06:58:35.171Z,92.85
2022-08-19T06:59:35.173Z,92.75
2022-08-19T07:00:35.191Z,92.94
2022-08-19T07:01:35.117Z,92.65
2022-08-19T07:02:35.092Z,92.65
2022-08-19T07:03:35.100Z,92.75
2022-08-19T07:04:35.090Z,93.05
2022-08-19T07:05:35.060Z,92.30
2022-08-19T07:06:44.039Z,92.60
2022-08-19T07:07:36.028Z,92.70
2022-08-19T07:08:35.086Z,92.40
2022-08-19T07:09:35.034Z,92.20
2022-08-19T07:10:35.011Z,91.90
2022-08-19T07:11:35.012Z,92.30
2022-08-19T07:12:35.777Z,91.71
2022-08-19T07:13:34.984Z,92.30
2022-08-19T07:14:35.384Z,91.40
2022-08-19T07:15:34.935Z,92.40
2022-08-19T07:16:34.950Z,92.30
2022-08-19T07:17:34.903Z,91.86
2022-08-19T07:18:34.901Z,92.06
2022-08-19T07:19:34.890Z,92.06
2022-08-19T07:20:34.882Z,91.46
2022-08-19T07:21:34.851Z,91.36
2022-08-19T07:22:34.840Z,90.56
2022-08-19T07:23:34.842Z,90.86
2022-08-19T07:24:34.825Z,91.26
2022-08-19T07:25:34.854Z,91.66
2022-08-19T07:26:34.833Z,91.52
2022-08-19T07:27:34.784Z,91.11
2022-08-19T07:28:34.780Z,89.92
2022-08-19T07:29:35.713Z,89.92
2022-08-19T07:30:34.763Z,89.78
2022-08-19T07:31:34.763Z,89.48
2022-08-19T07:32:34.721Z,89.18
2022-08-19T07:33:34.874Z,89.32
2022-08-19T07:34:34.690Z,89.42
2022-08-19T07:35:41.726Z,89.62
2022-08-19T07:36:35.416Z,89.52
2022-08-19T07:37:34.643Z,89.82
2022-08-19T07:38:34.653Z,90.42
2022-08-19T07:39:34.678Z,90.36
2022-08-19T07:40:34.615Z,90.16
2022-08-19T07:41:34.593Z,90.86
2022-08-19T07:42:34.615Z,90.06
2022-08-19T07:43:35.189Z,90.42
2022-08-19T07:44:35.336Z,90.62
2022-08-19T07:45:34.573Z,90.52
2022-08-19T07:46:35.271Z,90.66
2022-08-19T07:47:48.993Z,90.46
2022-08-19T07:48:36.334Z,90.96
2022-08-19T07:49:34.519Z,90.76
2022-08-19T07:50:34.502Z,91.06
2022-08-19T07:51:37.044Z,90.86
2022-08-19T07:52:34.464Z,91.06
2022-08-19T07:53:39.164Z,90.96
2022-08-19T07:54:35.435Z,90.46
2022-08-19T07:55:42.262Z,90.46
2022-08-19T07:56:35.440Z,90.76
2022-08-19T07:57:34.500Z,90.36
2022-08-19T07:58:34.395Z,90.36
2022-08-19T07:59:34.371Z,90.56
2022-08-19T08:00:34.409Z,90.76
2022-08-19T08:01:34.410Z,91.06
2022-08-19T08:02:35.362Z,91.31
2022-08-19T08:03:34.315Z,90.81
2022-08-19T08:04:34.319Z,91.02
2022-08-19T08:05:35.710Z,90.96
2022-08-19T08:06:34.284Z,91.46
2022-08-19T08:07:34.274Z,91.66
2022-08-19T08:08:34.413Z,91.96
2022-08-19T08:09:34.571Z,92.06
2022-08-19T08:10:34.236Z,92.06
2022-08-19T08:11:34.243Z,92.06
2022-08-19T08:12:35.525Z,92.06
2022-08-19T08:13:34.372Z,91.66
2022-08-19T08:14:35.123Z,91.76
2022-08-19T08:15:36.619Z,91.96
2022-08-19T08:16:35.184Z,91.52
2022-08-19T08:17:49.712Z,91.82
2022-08-19T08:18:35.141Z,91.61
2022-08-19T08:19:34.512Z,91.96
2022-08-19T08:20:34.112Z,91.61
2022-08-19T08:21:34.128Z,91.22
2022-08-19T08:22:34.299Z,91.22
2022-08-19T08:23:34.097Z,91.42
2022-08-19T08:24:34.311Z,91.02
2022-08-19T08:25:34.273Z,91.02
2022-08-19T08:26:34.572Z,91.02
2022-08-19T08:27:34.019Z,91.31
2022-08-19T08:28:34.083Z,91.31
2022-08-19T08:29:34.833Z,91.52
2022-08-19T08:30:33.983Z,91.52
2022-08-19T08:31:33.972Z,91.02
2022-08-19T08:32:33.963Z,90.81
2022-08-19T08:33:35.379Z,90.81
2022-08-19T08:34:33.935Z,91.02
2022-08-19T08:35:33.974Z,91.11
2022-08-19T08:36:33.925Z,90.81
2022-08-19T08:37:33.922Z,91.11
2022-08-19T08:38:38.983Z,91.16
2022-08-19T08:39:34.963Z,90.81
2022-08-19T08:40:33.851Z,90.72
2022-08-19T08:41:33.841Z,90.76
2022-08-19T08:42:33.844Z,91.22
2022-08-19T08:43:33.981Z,91.02
2022-08-19T08:44:33.812Z,90.81
2022-08-19T08:45:33.811Z,90.92
2022-08-19T08:46:35.477Z,90.92
2022-08-19T08:47:33.767Z,90.92
2022-08-19T08:48:33.883Z,90.62
2022-08-19T08:49:34.094Z,90.96
2022-08-19T08:50:33.761Z,91.42
2022-08-19T08:51:35.181Z,91.16
2022-08-19T08:52:33.703Z,91.36
2022-08-19T08:53:35.511Z,91.16
2022-08-19T08:54:34.931Z,91.16
2022-08-19T08:55:36.822Z,91.31
2022-08-19T08:56:33.644Z,91.02
2022-08-19T08:57:37.126Z,90.96
2022-08-19T08:58:34.629Z,90.86
2022-08-19T08:59:33.631Z,90.96
2022-08-19T09:00:33.652Z,90.96
2022-08-19T09:01:33.614Z,91.06
2022-08-19T09:02:33.583Z,91.26
2022-08-19T09:03:33.570Z,91.16
2022-08-19T09:04:33.583Z,91.56
2022-08-19T09:05:39.530Z,91.66
2022-08-19T09:06:34.526Z,91.66
2022-08-19T09:07:34.700Z,91.66
2022-08-19T09:08:33.496Z,91.66
2022-08-19T09:09:33.555Z,91.56
2022-08-19T09:10:33.472Z,91.66
2022-08-19T09:11:43.013Z,91.56
2022-08-19T09:12:34.452Z,90.92
2022-08-19T09:13:37.499Z,90.52
2022-08-19T09:14:49.768Z,90.62
2022-08-19T09:15:36.687Z,90.52
2022-08-19T09:16:33.380Z,90.12
2022-08-19T09:17:33.391Z,90.08
2022-08-19T09:18:33.414Z,89.78
2022-08-19T09:19:33.352Z,89.58
2022-08-19T09:20:33.400Z,89.28
2022-08-19T09:21:34.400Z,88.93
2022-08-19T09:22:33.323Z,88.93
2022-08-19T09:23:33.310Z,88.93
2022-08-19T09:24:33.287Z,88.29
2022-08-19T09:25:33.307Z,88.24
2022-08-19T09:26:47.509Z,88.13
2022-08-19T09:27:42.440Z,88.58
2022-08-19T09:28:34.239Z,89.18
2022-08-19T09:29:33.231Z,89.48
2022-08-19T09:30:33.239Z,89.87
2022-08-19T09:31:33.196Z,90.08
2022-08-19T09:32:33.180Z,90.17
2022-08-19T09:33:33.181Z,89.87
2022-08-19T09:34:33.161Z,90.08
2022-08-19T09:35:33.150Z,90.17
2022-08-19T09:36:34.732Z,90.13
2022-08-19T09:37:33.131Z,89.64
2022-08-19T09:38:33.120Z,89.09
2022-08-19T09:39:36.039Z,88.49
2022-08-19T09:40:36.574Z,88.29
2022-08-19T09:41:34.074Z,87.99
2022-08-19T09:42:35.483Z,87.99
2022-08-19T09:43:44.146Z,88.20
2022-08-19T09:44:34.031Z,88.24
2022-08-19T09:45:33.029Z,88.43
2022-08-19T09:46:33.003Z,88.54
2022-08-19T09:47:33.000Z,88.54
2022-08-19T09:48:32.980Z,88.73
2022-08-19T09:49:33.014Z,88.43
2022-08-19T09:50:32.981Z,88.84
2022-08-19T09:51:32.988Z,89.03
2022-08-19T09:52:33.030Z,89.38
2022-08-19T09:53:32.961Z,89.68
2022-08-19T09:54:33.150Z,89.98
2022-08-19T09:55:32.929Z,90.08
2022-08-19T09:56:32.917Z,90.08
2022-08-19T09:57:32.941Z,89.78
2022-08-19T09:58:33.519Z,89.87
2022-08-19T09:59:35.515Z,89.83
2022-08-19T10:00:33.660Z,89.87
2022-08-19T10:01:32.870Z,90.17
2022-08-19T10:02:33.529Z,90.17
2022-08-19T10:03:33.078Z,90.47
2022-08-19T10:04:33.639Z,90.47
2022-08-19T10:05:32.870Z,90.67
2022-08-19T10:06:46.283Z,90.67
2022-08-19T10:07:36.079Z,90.77
2022-08-19T10:08:32.728Z,90.58
2022-08-19T10:09:34.311Z,90.17
2022-08-19T10:10:32.701Z,90.37
2022-08-19T10:11:36.527Z,90.58
2022-08-19T10:12:33.696Z,90.17
2022-08-19T10:13:32.702Z,89.83
2022-08-19T10:14:32.649Z,89.83
2022-08-19T10:15:32.635Z,89.34
2022-08-19T10:16:34.324Z,89.14
2022-08-19T10:17:33.688Z,88.89
2022-08-19T10:18:32.588Z,88.49
2022-08-19T10:19:32.600Z,88.49
2022-08-19T10:20:32.571Z,88.70
2022-08-19T10:21:32.552Z,88.59
2022-08-19T10:22:32.543Z,88.20
2022-08-19T10:23:33.732Z,88.29
2022-08-19T10:24:32.568Z,87.80
2022-08-19T10:25:32.523Z,87.90
2022-08-19T10:26:32.900Z,87.55
2022-08-19T10:27:32.478Z,87.46
2022-08-19T10:28:32.479Z,87.46
2022-08-19T10:29:33.550Z,86.82
2022-08-19T10:30:32.459Z,86.72
2022-08-19T10:31:59.695Z,86.52
2022-08-19T10:32:34.092Z,85.62
2022-08-19T10:33:52.948Z,85.72
2022-08-19T10:34:33.400Z,85.72
2022-08-19T10:35:32.381Z,85.92
2022-08-19T10:36:33.365Z,86.06
2022-08-19T10:37:32.481Z,86.26
2022-08-19T10:38:33.112Z,86.96
2022-08-19T10:39:41.100Z,87.05
2022-08-19T10:40:33.422Z,87.60
2022-08-19T10:41:32.344Z,87.50
2022-08-19T10:42:32.394Z,87.30
2022-08-19T10:43:32.281Z,87.50
2022-08-19T10:44:32.821Z,87.50
2022-08-19T10:45:32.321Z,87.60
2022-08-19T10:46:32.248Z,88.04
2022-08-19T10:47:32.252Z,87.74
2022-08-19T10:48:32.230Z,88.43
2022-08-19T10:49:32.213Z,88.64
2022-08-19T10:50:32.232Z,88.64
2022-08-19T10:51:32.233Z,88.58
2022-08-19T10:52:32.511Z,88.98
2022-08-19T10:53:32.139Z,88.88
2022-08-19T10:54:33.451Z,88.88
2022-08-19T10:55:32.130Z,88.68
2022-08-19T10:56:32.190Z,88.78
2022-08-19T10:57:52.289Z,88.88
2022-08-19T10:58:33.137Z,88.98
2022-08-19T10:59:35.947Z,89.18
2022-08-19T11:00:32.309Z,89.07
2022-08-19T11:01:32.209Z,88.64
2022-08-19T11:02:33.261Z,88.73
2022-08-19T11:03:32.030Z,88.43
2022-08-19T11:04:32.023Z,88.04
2022-08-19T11:05:39.754Z,88.38
2022-08-19T11:06:32.999Z,88.54
2022-08-19T11:07:31.981Z,88.24
2022-08-19T11:08:32.021Z,88.28
2022-08-19T11:09:34.210Z,88.38
2022-08-19T11:10:31.990Z,88.48
2022-08-19T11:11:32.839Z,88.38
2022-08-19T11:12:31.909Z,88.28
2022-08-19T11:13:31.900Z,88.58
2022-08-19T11:14:32.128Z,88.48
2022-08-19T11:15:31.891Z,88.58
2022-08-19T11:16:31.893Z,88.48
2022-08-19T11:17:31.883Z,88.28
2022-08-19T11:18:31.862Z,88.38
2022-08-19T11:19:31.843Z,88.34
2022-08-19T11:20:31.809Z,88.13
2022-08-19T11:21:31.800Z,87.94
2022-08-19T11:22:36.741Z,87.74
2022-08-19T11:23:32.768Z,88.08
2022-08-19T11:24:31.770Z,88.08
2022-08-19T11:25:31.878Z,88.28
2022-08-19T11:26:31.919Z,88.38
2022-08-19T11:27:31.760Z,88.18
2022-08-19T11:28:31.728Z,88.13
2022-08-19T11:29:31.720Z,87.74
2022-08-19T11:30:31.690Z,87.44
2022-08-19T11:31:31.669Z,87.44
2022-08-19T11:32:31.684Z,87.54
2022-08-19T11:33:31.864Z,87.34
2022-08-19T11:34:31.638Z,87.64
2022-08-19T11:35:31.651Z,87.98
2022-08-19T11:36:31.642Z,88.08
2022-08-19T11:37:31.606Z,87.98
2022-08-19T11:38:32.533Z,88.08
2022-08-19T11:39:31.707Z,88.18
2022-08-19T11:40:31.560Z,88.28
2022-08-19T11:41:31.553Z,87.98
2022-08-19T11:42:31.560Z,88.28
2022-08-19T11:43:35.501Z,88.48
2022-08-19T11:44:32.551Z,88.28
2022-08-19T11:45:31.851Z,88.28
2022-08-19T11:46:31.549Z,88.48
2022-08-19T11:47:31.467Z,88.98
2022-08-19T11:48:31.468Z,88.88
2022-08-19T11:49:31.451Z,88.88
2022-08-19T11:50:31.438Z,88.68
2022-08-19T11:51:31.432Z,88.78
2022-08-19T11:52:31.419Z,88.54
2022-08-19T11:53:31.409Z,87.64
2022-08-19T11:54:31.390Z,88.08
2022-08-19T11:55:31.398Z,87.98
2022-08-19T11:56:31.364Z,88.18
2022-08-19T11:57:31.378Z,88.18
2022-08-19T11:58:31.337Z,88.28
2022-08-19T11:59:31.319Z,88.08
2022-08-19T12:00:31.299Z,88.08
2022-08-19T12:01:31.318Z,88.08
2022-08-19T12:02:31.289Z,87.94
2022-08-19T12:03:31.336Z,88.04
2022-08-19T12:04:31.315Z,87.64
2022-08-19T12:05:31.286Z,87.84
2022-08-19T12:06:31.669Z,87.64
2022-08-19T12:07:31.229Z,87.54
2022-08-19T12:08:31.218Z,87.74
2022-08-19T12:09:31.199Z,87.94
2022-08-19T12:10:31.183Z,87.94
2022-08-19T12:11:31.274Z,87.84
2022-08-19T12:12:31.237Z,87.74
2022-08-19T12:13:31.171Z,88.04
2022-08-19T12:14:31.221Z,88.04
2022-08-19T12:15:37.281Z,87.88
2022-08-19T12:16:32.134Z,87.98
2022-08-19T12:17:33.063Z,88.38
2022-08-19T12:18:31.134Z,88.58
2022-08-19T12:19:31.090Z,88.68
2022-08-19T12:20:31.062Z,88.88
2022-08-19T12:21:31.329Z,88.68
2022-08-19T12:22:31.076Z,88.78
2022-08-19T12:23:31.144Z,88.48
2022-08-19T12:24:31.029Z,88.38
2022-08-19T12:25:31.051Z,87.94
2022-08-19T12:26:31.118Z,87.74
2022-08-19T12:27:40.495Z,87.54
2022-08-19T12:28:31.999Z,87.54
2022-08-19T12:29:31.389Z,87.44
2022-08-19T12:30:31.337Z,87.24
2022-08-19T12:31:31.440Z,87.04
2022-08-19T12:32:30.957Z,86.44
2022-08-19T12:33:31.531Z,86.34
2022-08-19T12:34:30.907Z,86.84
2022-08-19T12:35:31.609Z,86.84
2022-08-19T12:36:30.893Z,86.84
2022-08-19T12:37:31.500Z,86.15
2022-08-19T12:38:31.658Z,86.34
2022-08-19T12:39:31.317Z,86.44
2022-08-19T12:40:31.493Z,86.54
2022-08-19T12:41:30.808Z,86.04
2022-08-19T12:42:30.796Z,86.10
2022-08-19T12:43:31.150Z,85.41
2022-08-19T12:44:31.948Z,84.97
2022-08-19T12:45:30.759Z,84.77
2022-08-19T12:46:30.746Z,84.86
2022-08-19T12:47:30.712Z,84.37
2022-08-19T12:48:34.525Z,84.56
2022-08-19T12:49:52.189Z,84.23
2022-08-19T12:50:31.687Z,84.03
2022-08-19T12:51:30.678Z,83.53
2022-08-19T12:52:30.744Z,83.63
2022-08-19T12:53:30.691Z,83.63
2022-08-19T12:54:30.669Z,83.59